Time;durP1;ratioP1;P1;durP2;ratioP2;P2;SDS_P1;SDS_P2;PMS_P1;PMS_P2;Temp;Humidity;BMP_temperature;BMP_pressure;BME280_temperature;BME280_humidity;BME280_pressure;Samples;Min_cycle;Max_cycle;Signal;HPM_P1;HPM_P2
2022/07/07 00:01:09;;;;;;;1.70;0.70;;;;;;;18.84;62.67;99098.06;5031095;28;20042;-63
2022/07/07 00:03:53;;;;;;;1.77;1.10;;;;;;;18.79;59.45;99103.84;5047889;28;20122;-63
2022/07/07 00:06:38;;;;;;;1.58;0.90;;;;;;;18.78;63.43;99096.03;5034337;28;20049;-63
2022/07/07 00:09:23;;;;;;;0.98;0.73;;;;;;;18.80;63.26;99102.84;5020186;28;20065;-62
2022/07/07 00:12:08;;;;;;;1.20;0.80;;;;;;;18.71;63.43;99093.13;5025029;28;20049;-63
2022/07/07 00:14:53;;;;;;;1.95;1.00;;;;;;;18.71;63.67;99093.97;5027710;28;20065;-63
2022/07/07 00:17:37;;;;;;;1.20;1.00;;;;;;;18.73;63.24;99093.81;5026662;28;20421;-62
2022/07/07 00:20:22;;;;;;;1.20;0.70;;;;;;;18.73;59.76;99092.97;5021055;28;20155;-63
2022/07/07 00:23:06;;;;;;;1.05;0.70;;;;;;;18.69;62.88;99093.28;5046930;28;20053;-63
2022/07/07 00:25:51;;;;;;;1.10;0.85;;;;;;;18.68;62.96;99091.63;5024849;28;20054;-64
2022/07/07 00:28:36;;;;;;;1.00;0.80;;;;;;;18.70;61.03;99088.81;5032410;28;20061;-64
2022/07/07 00:31:20;;;;;;;2.08;0.90;;;;;;;18.71;61.53;99085.19;5033266;28;20057;-64
2022/07/07 00:34:05;;;;;;;1.42;0.80;;;;;;;18.73;60.28;99090.34;5022586;28;20045;-61
2022/07/07 00:36:50;;;;;;;1.23;0.90;;;;;;;18.74;61.34;99090.19;5034078;28;20099;-61
2022/07/07 00:39:34;;;;;;;1.58;0.82;;;;;;;18.69;61.97;99095.94;5034508;28;20053;-62
2022/07/07 00:42:19;;;;;;;1.00;0.70;;;;;;;18.65;61.68;99091.09;5028169;28;20038;-62
2022/07/07 00:45:06;;;;;;;1.13;0.60;;;;;;;18.67;61.54;99083.81;5027115;28;20052;-65
2022/07/07 00:47:50;;;;;;;1.08;0.60;;;;;;;18.66;62.81;99080.31;5015022;28;20482;-64
2022/07/07 00:50:36;;;;;;;1.40;0.75;;;;;;;18.56;62.03;99085.69;5030553;28;20084;-62
2022/07/07 00:53:21;;;;;;;1.77;0.85;;;;;;;18.48;61.17;99082.94;5021318;28;20045;-62
2022/07/07 00:56:06;;;;;;;1.02;0.88;;;;;;;18.49;61.59;99079.31;5032840;28;20038;-62
2022/07/07 00:58:51;;;;;;;1.35;0.80;;;;;;;18.50;62.74;99082.78;5028219;28;20461;-62
2022/07/07 01:01:41;;;;;;;0.98;0.70;;;;;;;18.44;63.22;99085.06;5033559;28;20048;-62
2022/07/07 01:04:26;;;;;;;1.83;0.73;;;;;;;18.35;59.38;99067.38;5033231;28;20044;-62
2022/07/07 01:07:11;;;;;;;1.42;0.80;;;;;;;18.35;60.99;99067.38;5031993;28;20493;-64
2022/07/07 01:09:59;;;;;;;0.80;0.60;;;;;;;18.37;63.18;99061.94;5021132;28;20042;-64
2022/07/07 01:12:44;;;;;;;1.20;0.80;;;;;;;18.35;62.30;99067.38;5033038;28;20038;-61
2022/07/07 01:15:28;;;;;;;0.90;0.70;;;;;;;18.34;62.26;99063.91;5022019;28;20045;-62
2022/07/07 01:18:13;;;;;;;1.02;0.52;;;;;;;18.34;62.81;99061.25;5013942;28;20037;-62
2022/07/07 01:21:02;;;;;;;1.02;0.75;;;;;;;18.36;63.75;99061.09;5040988;28;20072;-63
2022/07/07 01:23:47;;;;;;;1.05;0.70;;;;;;;18.31;63.57;99056.25;5032757;28;20096;-62
2022/07/07 01:26:32;;;;;;;0.80;0.57;;;;;;;18.32;64.67;99057.09;5032908;28;20053;-62
2022/07/07 01:29:16;;;;;;;1.27;0.68;;;;;;;18.22;63.51;99062.44;5021028;28;20429;-62
2022/07/07 01:32:01;;;;;;;1.90;0.80;;;;;;;18.23;63.13;99061.44;5020572;28;20451;-63
2022/07/07 01:34:48;;;;;;;0.73;0.70;;;;;;;18.13;63.49;99061.53;5017540;28;20041;-63
2022/07/07 01:37:33;;;;;;;0.70;0.57;;;;;;;18.12;62.92;99067.78;5030233;28;20053;-64
2022/07/07 01:40:18;;;;;;;1.38;0.73;;;;;;;18.07;62.19;99068.19;5022132;28;20099;-63
2022/07/07 01:43:02;;;;;;;1.08;0.63;;;;;;;18.09;63.27;99054.78;5016492;28;20053;-62
2022/07/07 01:45:47;;;;;;;0.80;0.65;;;;;;;18.17;62.09;99062.88;5015678;28;20042;-63
2022/07/07 01:48:32;;;;;;;0.70;0.60;;;;;;;18.21;64.08;99056.28;5029633;28;20065;-63
2022/07/07 01:51:17;;;;;;;1.15;0.70;;;;;;;18.20;62.31;99059.94;5028809;28;20068;-63
2022/07/07 01:54:02;;;;;;;0.80;0.60;;;;;;;18.16;64.50;99050.63;5034797;28;20042;-63
2022/07/07 01:56:47;;;;;;;1.50;0.82;;;;;;;18.23;67.48;99056.13;5023011;28;20482;-64
2022/07/07 01:59:33;;;;;;;1.00;0.70;;;;;;;18.19;63.81;99058.28;5021499;28;20069;-62
2022/07/07 02:02:18;;;;;;;1.40;0.70;;;;;;;18.15;64.92;99056.88;5032596;28;20038;-62
2022/07/07 02:05:03;;;;;;;0.93;0.75;;;;;;;18.18;66.78;99053.13;5017158;28;20494;-63
2022/07/07 02:07:48;;;;;;;0.75;0.60;;;;;;;18.10;61.81;99054.66;5004885;28;20076;-62
2022/07/07 02:13:35;;;;;;;1.15;0.80;;;;;;;18.20;64.12;99043.19;5026324;28;20045;-62
2022/07/07 02:16:22;;;;;;;1.27;0.80;;;;;;;18.17;64.52;99048.78;5023331;28;20042;-62
2022/07/07 02:19:07;;;;;;;2.30;0.85;;;;;;;18.12;64.49;99048.34;5017386;28;20481;-63
2022/07/07 02:21:52;;;;;;;1.20;0.77;;;;;;;18.14;64.73;99041.13;5015284;28;20053;-62
2022/07/07 02:24:37;;;;;;;0.80;0.47;;;;;;;18.21;64.56;99051.00;5012914;28;20129;-62
2022/07/07 02:27:21;;;;;;;0.98;0.68;;;;;;;18.23;63.26;99053.50;5039019;28;20045;-63
2022/07/07 02:30:07;;;;;;;1.25;0.80;;;;;;;18.18;63.40;99053.94;5024212;28;20064;-62
2022/07/07 02:32:52;;;;;;;0.88;0.68;;;;;;;18.20;65.58;99062.59;5019972;28;20435;-63
2022/07/07 02:35:37;;;;;;;0.93;0.63;;;;;;;18.24;61.56;99059.63;5028611;28;20042;-62
2022/07/07 02:38:22;;;;;;;0.70;0.60;;;;;;;18.26;60.81;99055.88;5031087;28;20050;-63
2022/07/07 02:41:07;;;;;;;1.15;0.73;;;;;;;18.28;62.18;99053.88;5017079;28;20453;-63
2022/07/07 02:43:51;;;;;;;1.00;0.88;;;;;;;18.22;64.02;99050.03;5029746;28;20072;-63
2022/07/07 02:46:36;;;;;;;2.25;0.98;;;;;;;18.26;63.39;99057.69;5020886;28;20050;-64
2022/07/07 02:49:21;;;;;;;0.90;0.70;;;;;;;18.17;63.99;99056.75;5017408;28;20149;-63
2022/07/07 02:52:06;;;;;;;1.88;0.80;;;;;;;18.20;64.54;99056.44;5028593;28;20635;-63
2022/07/07 02:54:51;;;;;;;0.75;0.50;;;;;;;18.13;63.89;99061.53;5025785;28;20042;-63
2022/07/07 02:57:36;;;;;;;0.93;0.70;;;;;;;18.19;66.77;99062.75;5011957;28;20065;-63
2022/07/07 03:00:20;;;;;;;0.98;0.70;;;;;;;18.20;65.47;99053.78;5029446;28;20045;-63
2022/07/07 03:03:08;;;;;;;2.05;1.05;;;;;;;18.22;65.47;99065.09;5030528;28;20048;-63
2022/07/07 03:05:52;;;;;;;1.60;0.82;;;;;;;18.20;63.81;99054.63;5023644;28;20041;-63
2022/07/07 03:08:37;;;;;;;1.23;0.80;;;;;;;18.17;64.33;99059.38;5021106;28;20044;-63
2022/07/07 03:11:21;;;;;;;1.73;1.45;;;;;;;18.10;64.37;99062.59;5019398;28;20065;-63
2022/07/07 03:14:06;;;;;;;0.98;0.73;;;;;;;18.10;65.22;99059.94;5028255;28;20046;-64
2022/07/07 03:16:51;;;;;;;0.82;0.80;;;;;;;18.21;64.59;99058.13;5024745;28;20086;-64
2022/07/07 03:19:36;;;;;;;2.83;1.25;;;;;;;18.24;66.26;99055.19;5022046;28;20053;-63
2022/07/07 03:22:20;;;;;;;1.30;1.20;;;;;;;18.33;66.32;99053.44;4999917;28;20042;-63
2022/07/07 03:25:06;;;;;;;1.23;0.90;;;;;;;18.32;65.73;99057.09;5012700;28;20060;-63
2022/07/07 03:27:51;;;;;;;2.33;1.25;;;;;;;18.18;65.60;99055.78;5011765;28;20049;-64
2022/07/07 03:30:36;;;;;;;1.95;1.20;;;;;;;18.13;66.45;99055.38;5011480;28;20041;-63
2022/07/07 03:33:21;;;;;;;2.72;2.22;;;;;;;18.13;65.00;99060.69;5010172;28;20042;-63
2022/07/07 03:36:06;;;;;;;2.17;1.90;;;;;;;18.10;66.02;99054.66;5025591;28;20052;-63
2022/07/07 03:38:51;;;;;;;6.00;2.70;;;;;;;18.01;64.60;99055.53;5017010;28;20064;-62
2022/07/07 03:41:36;;;;;;;2.60;2.15;;;;;;;18.02;65.09;99069.63;5029430;28;20406;-62
2022/07/07 03:44:21;;;;;;;2.08;1.67;;;;;;;18.10;65.77;99062.59;5019046;28;20052;-62
2022/07/07 03:47:05;;;;;;;3.38;2.80;;;;;;;18.15;66.39;99067.50;5010803;28;20042;-63
2022/07/07 03:49:50;;;;;;;5.22;2.85;;;;;;;18.02;65.78;99062.50;5011561;28;20390;-62
2022/07/07 03:52:35;;;;;;;4.15;3.28;;;;;;;18.02;66.40;99061.69;5010837;28;20100;-63
2022/07/07 03:55:20;;;;;;;3.53;2.33;;;;;;;18.08;66.79;99067.22;5011282;28;20116;-63
2022/07/07 03:58:04;;;;;;;3.65;3.17;;;;;;;17.75;65.90;99055.34;5028262;28;20056;-63
2022/07/07 04:00:49;;;;;;;4.68;3.22;;;;;;;17.56;67.89;99055.25;5041534;28;20068;-63
2022/07/07 04:03:34;;;;;;;4.75;2.90;;;;;;;17.68;68.70;99053.28;5038480;28;20120;-64
2022/07/07 04:06:19;;;;;;;2.72;2.33;;;;;;;17.88;69.36;99047.09;5030397;28;20052;-63
2022/07/07 04:09:04;;;;;;;2.47;1.90;;;;;;;18.01;68.56;99044.09;5038535;28;20056;-63
2022/07/07 04:11:49;;;;;;;2.63;1.70;;;;;;;18.17;67.64;99048.78;5022600;28;20037;-63
2022/07/07 04:14:33;;;;;;;2.03;1.83;;;;;;;18.19;68.11;99052.97;5036127;28;20046;-64
2022/07/07 04:17:18;;;;;;;2.92;1.92;;;;;;;18.20;65.73;99048.50;5020383;28;20490;-64
2022/07/07 04:20:04;;;;;;;2.15;1.83;;;;;;;18.06;63.88;99048.00;5033240;28;20065;-63
2022/07/07 04:22:53;;;;;;;2.50;1.67;;;;;;;18.01;63.01;99041.44;5039394;28;20068;-64
2022/07/07 04:25:38;;;;;;;2.20;1.70;;;;;;;18.01;62.50;99046.75;5030012;28;20076;-64
2022/07/07 04:28:23;;;;;;;4.28;1.70;;;;;;;18.04;63.32;99042.00;5026208;28;20078;-63
2022/07/07 04:31:08;;;;;;;2.05;1.65;;;;;;;18.14;62.02;99043.78;5026546;28;20504;-63
2022/07/07 04:33:53;;;;;;;2.63;1.73;;;;;;;18.09;61.65;99042.38;5029668;28;20042;-63
2022/07/07 04:36:38;;;;;;;3.17;1.70;;;;;;;18.07;63.07;99039.03;5027745;28;20474;-64
2022/07/07 04:39:23;;;;;;;11.13;1.95;;;;;;;18.13;62.05;99042.13;5041120;28;20081;-63
2022/07/07 04:42:08;;;;;;;3.83;1.70;;;;;;;18.04;62.47;99041.16;5023777;28;20053;-64
2022/07/07 04:44:52;;;;;;;2.17;1.58;;;;;;;18.17;63.25;99038.19;5043550;28;20041;-64
2022/07/07 04:47:41;;;;;;;2.45;1.73;;;;;;;18.27;62.23;99046.09;5025177;28;20041;-64
2022/07/07 04:50:26;;;;;;;2.35;1.48;;;;;;;18.53;63.57;99048.84;5033455;28;20053;-63
2022/07/07 04:53:11;;;;;;;2.85;1.52;;;;;;;18.61;64.06;99049.91;5033566;28;20112;-63
2022/07/07 04:55:55;;;;;;;1.42;1.00;;;;;;;18.65;64.34;99056.59;5022334;28;20101;-63
2022/07/07 04:58:41;;;;;;;3.40;1.50;;;;;;;18.38;68.62;99045.06;5032886;28;20400;-64
2022/07/07 05:01:26;;;;;;;1.67;1.50;;;;;;;18.53;72.04;99053.31;5033950;28;20050;-64
2022/07/07 05:04:11;;;;;;;2.60;1.75;;;;;;;18.55;70.25;99051.34;5004845;28;20056;-63
2022/07/07 05:06:55;;;;;;;2.78;1.50;;;;;;;18.52;72.42;99055.16;5033489;28;20046;-64
2022/07/07 05:09:40;;;;;;;2.10;1.25;;;;;;;18.45;71.93;99054.91;5014167;28;20048;-64
2022/07/07 05:12:25;;;;;;;2.25;1.38;;;;;;;18.55;71.46;99059.31;5012198;28;20061;-64
2022/07/07 05:15:10;;;;;;;3.83;2.35;;;;;;;18.60;72.28;99057.06;5010057;28;20033;-63
2022/07/07 05:17:54;;;;;;;2.63;1.48;;;;;;;18.66;70.20;99056.44;5032522;28;20052;-64
2022/07/07 05:20:39;;;;;;;1.98;1.40;;;;;;;18.51;71.79;99057.97;5019518;28;20056;-64
2022/07/07 05:23:27;;;;;;;1.90;1.15;;;;;;;18.64;70.41;99053.09;5023025;28;20465;-64
2022/07/07 05:26:12;;;;;;;2.65;1.63;;;;;;;18.69;68.92;99055.28;5031104;28;20046;-64
2022/07/07 05:28:56;;;;;;;2.60;1.30;;;;;;;18.81;68.65;99055.91;5032153;28;20554;-64
2022/07/07 05:31:41;;;;;;;2.15;1.65;;;;;;;18.88;66.68;99053.50;5015363;28;20037;-64
2022/07/07 05:34:26;;;;;;;1.50;1.30;;;;;;;18.97;66.79;99052.56;5031994;28;20072;-63
2022/07/07 05:37:10;;;;;;;3.05;1.48;;;;;;;19.18;66.59;99046.13;5033321;28;20042;-63
2022/07/07 05:39:55;;;;;;;1.60;1.35;;;;;;;19.26;65.90;99050.69;5032547;28;20073;-63
2022/07/07 05:42:40;;;;;;;2.60;1.63;;;;;;;19.38;65.99;99046.78;5033163;28;20045;-63
2022/07/07 05:45:24;;;;;;;4.63;1.52;;;;;;;19.33;64.63;99049.91;5020101;28;20065;-63
2022/07/07 05:48:09;;;;;;;5.28;2.67;;;;;;;19.51;62.85;99049.00;5038441;28;20072;-63
2022/07/07 05:50:54;;;;;;;2.45;1.40;;;;;;;19.45;60.58;99050.47;5029557;28;20125;-65
2022/07/07 05:53:39;;;;;;;3.70;1.60;;;;;;;19.20;60.50;99044.16;5012394;28;20096;-63
2022/07/07 05:56:23;;;;;;;2.33;1.63;;;;;;;19.43;59.63;99041.84;5031953;28;20049;-64
2022/07/07 05:59:08;;;;;;;2.03;1.40;;;;;;;19.57;61.14;99040.41;5031223;28;20069;-62
2022/07/07 06:01:53;;;;;;;2.47;1.75;;;;;;;19.82;59.83;99048.53;5018601;28;20045;-62
2022/07/07 06:04:37;;;;;;;4.35;1.98;;;;;;;19.99;59.20;99050.44;5011958;28;20042;-63
2022/07/07 06:07:23;;;;;;;2.28;1.55;;;;;;;20.27;60.63;99044.91;5016749;28;20053;-63
2022/07/07 06:10:10;;;;;;;2.30;1.08;;;;;;;20.16;55.74;99048.69;5026284;28;20041;-64
2022/07/07 06:12:58;;;;;;;1.50;1.05;;;;;;;20.24;63.04;99055.88;5020287;28;20040;-63
2022/07/07 06:15:42;;;;;;;1.48;1.00;;;;;;;20.29;65.26;99056.19;5014930;28;20090;-63
2022/07/07 06:18:27;;;;;;;2.35;1.20;;;;;;;20.50;66.13;99046.97;5022231;28;20517;-63
2022/07/07 06:21:12;;;;;;;1.70;1.13;;;;;;;21.07;66.45;99058.66;5026535;28;20165;-62
2022/07/07 06:23:57;;;;;;;1.80;1.00;;;;;;;21.19;63.84;99056.50;5019684;28;20133;-63
2022/07/07 06:26:42;;;;;;;2.38;1.10;;;;;;;20.87;64.92;99066.13;5012528;28;20092;-64
2022/07/07 06:29:26;;;;;;;1.23;1.13;;;;;;;20.69;65.56;99064.47;5007769;28;20057;-63
2022/07/07 06:32:14;;;;;;;2.78;1.08;;;;;;;20.51;67.06;99077.88;5003355;28;20184;-63
2022/07/07 06:34:59;;;;;;;1.27;1.13;;;;;;;20.49;66.67;99088.69;5019162;28;20064;-63
2022/07/07 06:37:43;;;;;;;1.92;1.25;;;;;;;20.46;67.12;99086.38;5015636;28;20484;-63
2022/07/07 06:40:29;;;;;;;1.50;0.90;;;;;;;20.54;64.96;99075.75;5015709;28;20498;-62
2022/07/07 06:43:13;;;;;;;3.33;1.25;;;;;;;20.87;65.52;99071.47;5025851;28;20034;-61
2022/07/07 06:45:58;;;;;;;1.50;0.93;;;;;;;20.89;64.20;99069.47;5021795;28;20827;-63
2022/07/07 06:48:43;;;;;;;2.90;1.40;;;;;;;20.98;62.06;99073.84;4995037;28;20068;-64
2022/07/07 06:51:28;;;;;;;1.92;1.25;;;;;;;21.39;61.63;99077.47;5012644;28;20042;-64
2022/07/07 06:54:13;;;;;;;2.70;1.20;;;;;;;22.01;61.67;99072.53;5011952;28;20050;-63
2022/07/07 06:56:57;;;;;;;1.75;1.10;;;;;;;22.11;61.58;99064.31;5002075;28;20052;-65
2022/07/07 06:59:43;;;;;;;7.45;1.13;;;;;;;22.55;58.90;99059.41;5044856;28;20064;-63
2022/07/07 07:02:27;;;;;;;1.55;1.15;;;;;;;22.75;55.23;99057.16;5031285;28;20694;-63
2022/07/07 07:05:12;;;;;;;1.33;1.10;;;;;;;23.54;51.43;99057.84;5044027;28;20045;-63
2022/07/07 07:07:57;;;;;;;2.58;1.33;;;;;;;23.63;51.12;99062.06;5032627;28;20045;-64
2022/07/07 07:10:42;;;;;;;1.48;1.05;;;;;;;23.37;52.33;99057.16;5017319;28;20969;-63
2022/07/07 07:13:27;;;;;;;2.95;1.00;;;;;;;23.42;52.53;99048.63;5020492;28;20552;-64
2022/07/07 07:16:12;;;;;;;4.47;1.13;;;;;;;23.25;53.27;99044.22;5017875;28;20041;-64
2022/07/07 07:18:57;;;;;;;1.48;1.00;;;;;;;23.12;54.72;99042.19;5029364;28;20037;-64
2022/07/07 07:21:42;;;;;;;3.08;1.50;;;;;;;24.30;52.92;99044.44;5021246;28;20045;-65
2022/07/07 07:24:27;;;;;;;1.80;0.90;;;;;;;25.84;48.98;99045.94;5026387;28;20037;-65
2022/07/07 07:27:13;;;;;;;1.63;0.90;;;;;;;24.79;48.65;99036.69;5012292;28;20153;-64
2022/07/07 07:29:58;;;;;;;1.30;1.13;;;;;;;25.60;48.79;99034.66;5012003;28;20129;-64
2022/07/07 07:32:43;;;;;;;1.20;0.80;;;;;;;25.28;49.64;99031.56;5027002;28;20080;-64
2022/07/07 07:35:28;;;;;;;2.55;1.30;;;;;;;25.66;49.65;99033.88;5044789;28;20041;-64
2022/07/07 07:38:13;;;;;;;1.77;1.00;;;;;;;24.18;49.54;99039.56;5030425;28;20048;-65
2022/07/07 07:40:57;;;;;;;2.13;1.30;;;;;;;23.93;52.06;99039.00;5029547;28;20050;-64
2022/07/07 07:43:42;;;;;;;2.17;1.00;;;;;;;23.78;50.93;99031.03;5020178;28;20084;-64
2022/07/07 07:46:27;;;;;;;3.97;1.23;;;;;;;24.66;51.09;99029.38;5023328;28;20072;-64
2022/07/07 07:49:11;;;;;;;2.42;1.20;;;;;;;23.85;49.11;99042.63;5025268;28;20108;-64
2022/07/07 07:51:56;;;;;;;3.88;1.20;;;;;;;23.98;51.37;99040.13;5028666;28;20163;-64
2022/07/07 07:54:41;;;;;;;2.55;1.30;;;;;;;24.20;50.55;99032.19;5013651;28;20065;-65
2022/07/07 07:57:26;;;;;;;2.22;1.20;;;;;;;24.20;51.27;99029.53;5030285;28;20121;-64
2022/07/07 08:00:13;;;;;;;1.73;1.33;;;;;;;23.57;48.74;99024.56;5037788;28;20068;-64
2022/07/07 08:02:58;;;;;;;2.20;1.42;;;;;;;23.21;53.22;99042.09;5029499;28;20046;-64
2022/07/07 08:05:43;;;;;;;4.43;1.92;;;;;;;23.93;49.07;99039.00;5042635;28;20125;-65
2022/07/07 08:08:30;;;;;;;2.95;1.35;;;;;;;24.53;48.93;99035.41;5027594;28;20046;-65
2022/07/07 08:11:15;;;;;;;2.70;1.08;;;;;;;24.90;46.76;99030.03;5030293;28;20052;-65
2022/07/07 08:14:00;;;;;;;2.03;1.35;;;;;;;25.53;45.68;99023.88;5027754;28;20062;-64
2022/07/07 08:16:45;;;;;;;1.75;1.40;;;;;;;25.39;44.66;99014.94;5009653;28;20163;-64
2022/07/07 08:19:29;;;;;;;1.88;1.55;;;;;;;25.70;44.79;99008.34;5020471;28;20049;-66
2022/07/07 08:22:14;;;;;;;2.22;1.25;;;;;;;26.00;45.98;99017.13;5034083;28;20083;-64
2022/07/07 08:24:59;;;;;;;2.88;1.40;;;;;;;25.84;44.72;99024.47;5008307;28;20161;-64
2022/07/07 08:27:43;;;;;;;3.30;1.60;;;;;;;26.18;46.38;99019.22;5014367;28;20046;-65
2022/07/07 08:30:28;;;;;;;1.60;1.20;;;;;;;26.64;44.71;99017.72;5029173;28;20120;-66
2022/07/07 08:33:13;;;;;;;1.60;1.20;;;;;;;26.30;44.54;99014.94;5033158;28;20522;-65
2022/07/07 08:35:58;;;;;;;3.63;1.55;;;;;;;25.94;42.06;99014.22;5020092;28;20445;-66
2022/07/07 08:38:43;;;;;;;2.25;1.42;;;;;;;26.44;44.66;99010.44;5030553;28;20056;-65
2022/07/07 08:41:29;;;;;;;1.67;1.30;;;;;;;26.24;43.73;99010.41;5043395;28;20046;-65
2022/07/07 08:44:17;;;;;;;1.83;1.10;;;;;;;26.88;42.06;99003.91;5046534;28;20048;-66
2022/07/07 08:47:03;;;;;;;3.33;1.40;;;;;;;26.68;44.52;99010.91;5032742;28;20176;-65
2022/07/07 08:49:48;;;;;;;3.13;1.40;;;;;;;26.01;43.22;99006.19;5032756;28;20462;-65
2022/07/07 08:52:34;;;;;;;2.60;2.17;;;;;;;25.64;45.78;99009.09;5020653;28;20140;-65
2022/07/07 08:55:23;;;;;;;2.58;1.58;;;;;;;26.74;45.19;98995.81;5047014;28;20044;-64
2022/07/07 08:58:09;;;;;;;2.70;1.50;;;;;;;27.65;40.06;99000.69;5026633;28;20049;-65
2022/07/07 09:00:54;;;;;;;3.80;1.35;;;;;;;27.76;40.18;98999.22;5018833;28;20049;-65
2022/07/07 09:03:39;;;;;;;1.50;1.15;;;;;;;27.41;44.18;99005.72;5018164;28;20065;-65
2022/07/07 09:06:23;;;;;;;2.03;1.30;;;;;;;26.88;43.46;99004.69;5024761;28;20096;-65
2022/07/07 09:09:08;;;;;;;2.25;1.20;;;;;;;26.61;48.62;98995.81;5030151;28;20064;-65
2022/07/07 09:11:59;;;;;;;4.45;1.45;;;;;;;26.51;42.70;98996.22;5033841;28;20603;-65
2022/07/07 09:14:54;;;;;;;1.70;1.27;;;;;;;26.64;43.52;99008.81;5014316;28;20129;-65
2022/07/07 09:17:41;;;;;;;1.40;1.25;;;;;;;26.99;43.37;98999.75;5000441;28;20037;-65
2022/07/07 09:20:33;;;;;;;2.35;1.33;;;;;;;27.49;42.45;99007.34;5020861;28;20129;-65
2022/07/07 09:23:23;;;;;;;2.40;1.20;;;;;;;27.81;38.51;99003.16;5012629;28;20057;-65
2022/07/07 09:26:08;;;;;;;1.90;1.23;;;;;;;28.68;40.97;99004.53;5045907;28;20123;-66
2022/07/07 09:29:00;;;;;;;2.50;1.50;;;;;;;28.00;40.27;99001.41;5018632;28;20073;-65
2022/07/07 09:32:01;;;;;;;3.63;1.65;;;;;;;27.77;42.28;98995.50;5030536;28;20136;-65
2022/07/07 09:34:46;;;;;;;3.38;1.15;;;;;;;27.90;41.33;99002.69;5046262;28;20108;-64
2022/07/07 09:41:00;;;;;;;2.13;1.08;;;;;;;26.55;38.84;98998.28;5028470;28;20394;-66
2022/07/07 09:44:05;;;;;;;2.03;1.10;;;;;;;26.62;38.71;98995.59;5042668;28;20497;-65
2022/07/07 09:46:51;;;;;;;2.15;0.90;;;;;;;25.94;36.25;98997.28;5022005;28;20050;-65
2022/07/07 09:49:56;;;;;;;1.83;0.80;;;;;;;26.46;34.29;99001.38;5031401;28;20069;-63
2022/07/07 09:52:47;;;;;;;5.10;0.90;;;;;;;28.33;34.90;99000.44;5032936;28;20069;-64
2022/07/07 09:55:35;;;;;;;1.42;0.95;;;;;;;28.82;35.09;98988.28;5028618;28;20120;-65
2022/07/07 09:58:19;;;;;;;2.13;0.93;;;;;;;28.19;33.98;98996.16;5031995;28;20049;-65
2022/07/07 10:01:05;;;;;;;1.05;0.80;;;;;;;27.69;34.48;99001.13;5034163;28;20548;-66
2022/07/07 10:03:51;;;;;;;2.05;0.70;;;;;;;27.48;36.28;98997.66;5029576;28;20064;-64
2022/07/07 10:06:38;;;;;;;2.05;1.00;;;;;;;27.74;33.52;98992.41;5012883;28;20037;-65
2022/07/07 10:09:25;;;;;;;4.05;1.00;;;;;;;27.38;32.21;98987.31;5019415;28;20082;-65
2022/07/07 10:12:16;;;;;;;1.70;0.88;;;;;;;26.68;35.97;98991.28;5028316;28;20061;-64
2022/07/07 10:15:13;;;;;;;1.00;0.77;;;;;;;27.04;33.52;98986.56;5022346;28;20124;-65
2022/07/07 10:17:58;;;;;;;2.22;0.80;;;;;;;26.58;33.67;98994.38;5030896;28;20042;-66
2022/07/07 10:20:45;;;;;;;2.85;1.00;;;;;;;25.94;36.27;98999.97;5031595;28;20049;-65
2022/07/07 10:23:34;;;;;;;2.00;0.98;;;;;;;25.80;35.10;99001.78;5032776;28;20076;-65
2022/07/07 10:26:35;;;;;;;0.95;0.63;;;;;;;25.79;39.57;99008.13;5029674;28;20114;-64
2022/07/07 10:29:45;;;;;;;1.30;0.80;;;;;;;25.61;37.83;99017.53;5025871;28;20054;-64
2022/07/07 10:32:40;;;;;;;1.92;0.80;;;;;;;25.41;37.38;99012.88;5034568;28;20103;-65
2022/07/07 10:35:25;;;;;;;1.60;1.00;;;;;;;25.36;37.17;99019.84;5017779;28;20056;-65
2022/07/07 10:38:16;;;;;;;2.30;1.02;;;;;;;25.05;39.09;99017.34;5013269;28;20038;-65
2022/07/07 10:41:02;;;;;;;2.65;1.23;;;;;;;25.20;37.87;99019.94;5019708;28;20085;-65
2022/07/07 10:43:57;;;;;;;7.63;1.40;;;;;;;25.13;37.94;99020.94;5018659;28;20568;-64
2022/07/07 10:46:57;;;;;;;2.03;1.05;;;;;;;25.22;38.50;99027.78;5021741;28;20453;-64
2022/07/07 10:49:44;;;;;;;2.45;1.27;;;;;;;23.99;41.71;99027.59;5023921;28;20041;-64
2022/07/07 10:52:41;;;;;;;4.43;1.00;;;;;;;23.72;45.98;99036.09;5049722;28;20133;-66
2022/07/07 10:55:52;;;;;;;3.65;1.17;;;;;;;23.64;43.64;99033.50;5031766;28;20072;-64
2022/07/07 10:58:43;;;;;;;1.50;1.05;;;;;;;23.73;44.82;99037.75;5025710;28;20603;-65
2022/07/07 11:01:29;;;;;;;2.83;1.15;;;;;;;23.84;43.99;99036.47;5032131;28;20049;-65
2022/07/07 11:04:51;;;;;;;1.30;0.85;;;;;;;23.48;43.93;99039.88;5030988;28;20502;-65
2022/07/07 11:07:36;;;;;;;3.55;1.00;;;;;;;23.68;44.22;99039.31;5016257;28;20037;-64
2022/07/07 11:10:23;;;;;;;1.27;0.75;;;;;;;24.11;43.87;99038.63;5017646;28;20080;-65
2022/07/07 11:13:31;;;;;;;2.40;0.93;;;;;;;24.12;43.60;99029.59;5012144;28;20068;-66
2022/07/07 11:16:27;;;;;;;1.40;0.80;;;;;;;23.84;42.55;99032.94;5011948;28;20172;-65
2022/07/07 11:19:14;;;;;;;0.80;0.60;;;;;;;23.90;42.23;99031.38;5024647;28;20064;-64
2022/07/07 11:21:59;;;;;;;1.73;0.70;;;;;;;24.51;41.55;99022.22;5023552;28;20516;-65
2022/07/07 11:24:44;;;;;;;1.80;0.80;;;;;;;25.56;39.62;99017.28;5031012;28;20119;-65
2022/07/07 11:27:29;;;;;;;1.77;0.90;;;;;;;24.45;40.46;99009.59;5015825;28;20097;-64
2022/07/07 11:30:14;;;;;;;1.13;0.73;;;;;;;24.61;41.06;99012.00;5021013;28;20514;-65
2022/07/07 11:33:02;;;;;;;1.77;1.00;;;;;;;25.25;44.19;99015.88;5031031;28;20033;-65
2022/07/07 11:35:47;;;;;;;1.20;0.80;;;;;;;25.34;44.06;99006.66;5029879;28;20041;-64
2022/07/07 11:38:32;;;;;;;1.48;0.90;;;;;;;24.84;39.36;99015.53;5017817;28;20483;-64
2022/07/07 11:41:17;;;;;;;2.60;0.90;;;;;;;25.67;41.22;99013.25;5027643;28;20053;-65
2022/07/07 11:44:02;;;;;;;0.82;0.70;;;;;;;26.36;37.24;99007.16;5035375;28;20078;-65
2022/07/07 11:46:51;;;;;;;1.63;1.10;;;;;;;26.60;35.75;99004.91;5020376;28;20038;-65
2022/07/07 11:49:36;;;;;;;1.75;1.00;;;;;;;26.96;36.16;99005.53;5028970;28;20493;-65
2022/07/07 11:52:22;;;;;;;4.20;1.05;;;;;;;26.12;38.05;99003.94;5017994;28;20072;-65
2022/07/07 11:55:07;;;;;;;2.28;0.90;;;;;;;25.18;43.43;99013.94;5014438;28;20042;-65
2022/07/07 11:57:56;;;;;;;2.05;1.08;;;;;;;24.90;42.27;99008.59;5039988;28;20033;-65
2022/07/07 12:00:41;;;;;;;1.70;1.02;;;;;;;25.16;42.62;99002.63;5031302;28;20061;-65
2022/07/07 12:03:31;;;;;;;1.42;0.90;;;;;;;24.76;39.04;99002.28;5021671;28;20066;-64
2022/07/07 12:06:16;;;;;;;1.60;1.17;;;;;;;24.11;40.94;99012.72;5017381;28;20048;-64
2022/07/07 12:09:02;;;;;;;2.15;1.05;;;;;;;24.58;41.73;99006.25;5034838;28;20049;-64
2022/07/07 12:11:48;;;;;;;3.10;1.00;;;;;;;24.52;43.51;99002.47;5014776;28;20092;-64
2022/07/07 12:14:33;;;;;;;1.52;0.68;;;;;;;23.40;40.65;99003.38;5027416;28;20053;-65
2022/07/07 12:17:38;;;;;;;4.60;1.10;;;;;;;24.07;42.73;99000.72;5023040;28;20044;-65
2022/07/07 12:20:24;;;;;;;1.90;0.93;;;;;;;24.08;42.32;98997.03;5020028;28;20054;-66
2022/07/07 12:23:16;;;;;;;3.05;1.00;;;;;;;24.39;40.61;98991.59;5015772;28;20042;-65
2022/07/07 12:26:11;;;;;;;1.40;0.80;;;;;;;24.50;39.71;98983.06;5039158;28;20045;-66
2022/07/07 12:28:59;;;;;;;1.77;0.70;;;;;;;24.87;40.79;98983.00;5021794;28;20524;-64
2022/07/07 12:31:45;;;;;;;2.42;0.70;;;;;;;24.51;42.65;98976.72;5020890;28;20050;-66
2022/07/07 12:34:38;;;;;;;2.20;0.90;;;;;;;24.72;42.08;98973.19;5020440;28;20585;-64
2022/07/07 12:37:47;;;;;;;1.23;0.80;;;;;;;24.99;41.98;98974.47;5019627;28;20637;-65
2022/07/07 12:40:37;;;;;;;1.10;0.80;;;;;;;24.27;39.04;98964.53;5013354;28;20046;-64
2022/07/07 12:43:32;;;;;;;1.33;0.90;;;;;;;24.24;39.66;98981.78;5025803;28;20046;-64
2022/07/07 12:46:16;;;;;;;1.15;0.57;;;;;;;23.94;37.85;98987.19;5022397;28;20041;-65
2022/07/07 12:49:01;;;;;;;1.05;0.40;;;;;;;23.09;41.29;98982.94;5031461;28;20069;-65
2022/07/07 12:51:49;;;;;;;5.43;0.52;;;;;;;22.84;40.75;98993.84;5046554;28;20041;-64
2022/07/07 12:54:33;;;;;;;1.42;0.30;;;;;;;23.06;40.72;99010.81;5021885;28;20140;-65
2022/07/07 12:57:26;;;;;;;1.38;0.40;;;;;;;22.64;40.82;99007.66;5030814;28;20057;-65
2022/07/07 13:00:24;;;;;;;0.73;0.35;;;;;;;22.85;43.62;99004.34;5032962;28;20053;-65
2022/07/07 13:03:09;;;;;;;4.72;0.32;;;;;;;22.47;39.58;99018.44;5020950;28;20115;-64
2022/07/07 13:05:58;;;;;;;2.15;0.30;;;;;;;22.24;40.15;99003.25;5032764;28;20482;-64
2022/07/07 13:08:43;;;;;;;1.05;0.45;;;;;;;22.21;42.03;99011.56;5033335;28;20080;-66
2022/07/07 13:11:28;;;;;;;3.45;0.40;;;;;;;22.20;42.63;99001.09;5032975;28;20041;-64